createdAt,value
2023-05-21T00:00:00.802Z,21.6562
2023-05-21T00:01:02.649Z,21.6526
2023-05-21T00:02:04.474Z,21.6517
2023-05-21T00:03:06.445Z,21.6519
2023-05-21T00:04:08.165Z,21.6538
2023-05-21T00:05:11.082Z,21.6522
2023-05-21T00:06:11.866Z,21.6477
2023-05-21T00:07:13.642Z,21.6508
2023-05-21T00:08:15.564Z,21.6495
2023-05-21T00:09:17.322Z,21.6439
2023-05-21T00:10:19.163Z,21.6455
2023-05-21T00:11:21.008Z,21.6454
2023-05-21T00:12:22.829Z,21.6460
2023-05-21T00:13:24.654Z,21.6455
2023-05-21T00:14:26.481Z,21.6442
2023-05-21T00:15:28.333Z,21.6456
2023-05-21T00:16:30.274Z,21.6450
2023-05-21T00:17:32.029Z,21.6509
2023-05-21T00:18:33.838Z,21.6526
2023-05-21T00:19:35.642Z,21.6533
2023-05-21T00:20:37.477Z,21.6493
2023-05-21T00:21:39.323Z,21.6441
2023-05-21T00:22:41.184Z,21.6432
2023-05-21T00:23:42.994Z,21.6452
2023-05-21T00:24:44.847Z,21.6469
2023-05-21T00:25:46.650Z,21.6482
2023-05-21T00:26:48.516Z,21.6490
2023-05-21T00:27:50.320Z,21.6515
2023-05-21T00:28:52.170Z,21.6535
2023-05-21T00:29:54.028Z,21.6512
2023-05-21T00:30:55.832Z,21.6481
2023-05-21T00:31:57.713Z,21.6522
2023-05-21T00:32:59.510Z,21.6560
2023-05-21T00:34:01.323Z,21.6614
2023-05-21T00:35:03.175Z,21.6634
2023-05-21T00:36:05.024Z,21.6660
2023-05-21T00:37:06.836Z,21.6638
2023-05-21T00:38:08.695Z,21.6617
2023-05-21T00:39:10.486Z,21.6557
2023-05-21T00:40:12.312Z,21.6558
2023-05-21T00:41:14.163Z,21.6559
2023-05-21T00:42:16.048Z,21.6579
2023-05-21T00:43:17.819Z,21.6590
2023-05-21T00:44:19.723Z,21.6594
2023-05-21T00:45:21.493Z,21.6595
2023-05-21T00:46:23.357Z,21.6614
2023-05-21T00:47:25.190Z,21.6573
2023-05-21T00:48:27.006Z,21.6619
2023-05-21T00:49:28.804Z,21.6643
2023-05-21T00:50:30.634Z,21.6618
2023-05-21T00:51:32.481Z,21.6641
2023-05-21T00:52:34.323Z,21.6661
2023-05-21T00:53:36.136Z,21.6659
2023-05-21T00:54:37.971Z,21.6651
2023-05-21T00:55:39.792Z,21.6604
2023-05-21T00:56:41.658Z,21.6584
2023-05-21T00:57:43.472Z,21.6600
2023-05-21T00:58:45.293Z,21.6637
2023-05-21T00:59:47.149Z,21.6650
2023-05-21T01:00:48.973Z,21.6666
2023-05-21T01:01:50.809Z,21.6689
2023-05-21T01:02:52.691Z,21.6629
2023-05-21T01:03:54.468Z,21.6659
2023-05-21T01:04:56.328Z,21.6659
2023-05-21T01:05:58.114Z,21.6709
2023-05-21T01:06:59.963Z,21.6735
2023-05-21T01:08:01.828Z,21.6733
2023-05-21T01:09:04.957Z,21.6740
2023-05-21T01:10:05.553Z,21.6718
2023-05-21T01:11:07.304Z,21.6660
2023-05-21T01:12:09.128Z,21.6618
2023-05-21T01:13:10.988Z,21.6636
2023-05-21T01:14:12.874Z,21.6670
2023-05-21T01:15:14.641Z,21.6670
2023-05-21T01:16:16.523Z,21.6669
2023-05-21T01:17:18.380Z,21.6629
2023-05-21T01:18:20.203Z,21.6621
2023-05-21T01:19:22.045Z,21.6600
2023-05-21T01:20:23.836Z,21.6626
2023-05-21T01:21:25.654Z,21.6630
2023-05-21T01:22:27.508Z,21.6654
2023-05-21T01:23:29.377Z,21.6687
2023-05-21T01:24:31.167Z,21.6686
2023-05-21T01:25:33.007Z,21.6717
2023-05-21T01:26:34.847Z,21.6737
2023-05-21T01:27:36.683Z,21.6733
2023-05-21T01:28:38.539Z,21.6744
2023-05-21T01:29:40.338Z,21.6763
2023-05-21T01:30:42.186Z,21.6752
2023-05-21T01:31:44.022Z,21.6715
2023-05-21T01:32:45.878Z,21.6690
2023-05-21T01:33:47.738Z,21.6675
2023-05-21T01:34:49.555Z,21.6665
2023-05-21T01:35:51.378Z,21.6651
2023-05-21T01:36:53.190Z,21.6680
2023-05-21T01:37:55.036Z,21.6685
2023-05-21T01:38:56.869Z,21.6675
2023-05-21T01:39:58.702Z,21.6684
2023-05-21T01:41:00.560Z,21.6720
2023-05-21T01:42:02.377Z,21.6726
2023-05-21T01:43:04.189Z,21.6642
2023-05-21T01:44:06.069Z,21.6584
2023-05-21T01:45:07.873Z,21.6597
2023-05-21T01:46:09.709Z,21.6606
2023-05-21T01:47:11.586Z,21.6611
2023-05-21T01:48:13.413Z,21.6612
2023-05-21T01:49:15.208Z,21.6616
2023-05-21T01:50:17.039Z,21.6635
2023-05-21T01:51:18.888Z,21.6637
2023-05-21T01:52:20.712Z,21.6658
2023-05-21T01:53:22.548Z,21.6643
2023-05-21T01:54:24.412Z,21.6654
2023-05-21T01:55:26.233Z,21.6654
2023-05-21T01:56:28.039Z,21.6677
2023-05-21T01:57:29.942Z,21.6663
2023-05-21T01:58:31.723Z,21.6629
2023-05-21T01:59:33.547Z,21.6603
2023-05-21T02:00:35.396Z,21.6592
2023-05-21T02:01:37.301Z,21.6624
2023-05-21T02:02:39.084Z,21.6616
2023-05-21T02:03:41.084Z,21.6563
2023-05-21T02:04:42.726Z,21.6541
2023-05-21T02:05:44.555Z,21.6559
2023-05-21T02:06:46.396Z,21.6574
2023-05-21T02:07:48.221Z,21.6602
2023-05-21T02:08:50.042Z,21.6629
2023-05-21T02:09:51.895Z,21.6661
2023-05-21T02:11:01.288Z,21.6643
2023-05-21T02:11:55.555Z,21.6565
2023-05-21T02:12:57.408Z,21.6569
2023-05-21T02:13:59.228Z,21.6595
2023-05-21T02:15:01.086Z,21.6651
2023-05-21T02:16:02.934Z,21.6620
2023-05-21T02:17:04.781Z,21.6555
2023-05-21T02:18:06.623Z,21.6571
2023-05-21T02:19:08.451Z,21.6538
2023-05-21T02:20:10.276Z,21.6574
2023-05-21T02:21:12.089Z,21.6577
2023-05-21T02:22:13.969Z,21.6567
2023-05-21T02:23:15.790Z,21.6590
2023-05-21T02:24:17.608Z,21.6516
2023-05-21T02:25:19.462Z,21.6517
2023-05-21T02:26:21.257Z,21.6588
2023-05-21T02:27:23.108Z,21.6606
2023-05-21T02:28:24.973Z,21.6573
2023-05-21T02:29:26.812Z,21.6595
2023-05-21T02:30:28.688Z,21.6594
2023-05-21T02:31:30.428Z,21.6622
2023-05-21T02:32:32.343Z,21.6613
2023-05-21T02:33:34.169Z,21.6589
2023-05-21T02:34:35.942Z,21.6608
2023-05-21T02:35:37.990Z,21.6633
2023-05-21T02:36:39.635Z,21.6659
2023-05-21T02:37:41.454Z,21.6707
2023-05-21T02:38:43.293Z,21.6754
2023-05-21T02:39:45.115Z,21.6773
2023-05-21T02:40:54.434Z,21.6743
2023-05-21T02:41:48.774Z,21.6653
2023-05-21T02:42:50.599Z,21.6680
2023-05-21T02:43:52.470Z,21.6719
2023-05-21T02:44:54.279Z,21.6697
2023-05-21T02:45:56.146Z,21.6705
2023-05-21T02:46:57.927Z,21.6683
2023-05-21T02:47:59.863Z,21.6703
2023-05-21T02:49:01.609Z,21.6649
2023-05-21T02:50:03.442Z,21.6609
2023-05-21T02:51:05.259Z,21.6595
2023-05-21T02:52:07.145Z,21.6596
2023-05-21T02:53:08.936Z,21.6566
2023-05-21T02:54:10.756Z,21.6582
2023-05-21T02:55:12.624Z,21.6613
2023-05-21T02:56:14.452Z,21.6651
2023-05-21T02:57:16.323Z,21.6663
2023-05-21T02:58:18.091Z,21.6713
2023-05-21T02:59:19.954Z,21.6760
2023-05-21T03:00:21.762Z,21.6752
2023-05-21T03:01:23.714Z,21.6771
2023-05-21T03:02:25.558Z,21.6821
2023-05-21T03:03:27.460Z,21.6821
2023-05-21T03:04:29.113Z,21.6795
2023-05-21T03:05:30.938Z,21.6789
2023-05-21T03:06:32.775Z,21.6819
2023-05-21T03:07:34.635Z,21.6836
2023-05-21T03:08:36.477Z,21.6826
2023-05-21T03:09:38.289Z,21.6835
2023-05-21T03:10:40.126Z,21.6798
2023-05-21T03:11:41.989Z,21.6781
2023-05-21T03:12:43.776Z,21.6755
2023-05-21T03:13:45.653Z,21.6753
2023-05-21T03:14:47.464Z,21.6794
2023-05-21T03:15:49.290Z,21.6833
2023-05-21T03:16:51.152Z,21.6808
2023-05-21T03:17:53.004Z,21.6806
2023-05-21T03:18:54.825Z,21.6817
2023-05-21T03:19:56.653Z,21.6814
2023-05-21T03:20:58.474Z,21.6831
2023-05-21T03:22:00.298Z,21.6851
2023-05-21T03:23:02.138Z,21.6828
2023-05-21T03:24:03.972Z,21.6841
2023-05-21T03:25:05.798Z,21.6800
2023-05-21T03:26:07.626Z,21.6785
2023-05-21T03:27:09.472Z,21.6856
2023-05-21T03:28:11.302Z,21.6891
2023-05-21T03:29:13.203Z,21.6914
2023-05-21T03:30:15.056Z,21.6935
2023-05-21T03:31:16.885Z,21.6889
2023-05-21T03:32:18.771Z,21.6832
2023-05-21T03:33:20.546Z,21.6818
2023-05-21T03:34:22.371Z,21.6844
2023-05-21T03:35:24.201Z,21.6854
2023-05-21T03:36:26.047Z,21.6894
2023-05-21T03:37:27.883Z,21.6910
2023-05-21T03:38:29.708Z,21.6912
2023-05-21T03:39:31.541Z,21.6919
2023-05-21T03:40:33.378Z,21.6919
2023-05-21T03:41:35.227Z,21.6925
2023-05-21T03:42:37.061Z,21.6876
2023-05-21T03:43:46.413Z,21.6877
2023-05-21T03:44:40.746Z,21.6819
2023-05-21T03:45:44.272Z,21.6797
2023-05-21T03:46:44.414Z,21.6788
2023-05-21T03:47:46.266Z,21.6777
2023-05-21T03:48:48.066Z,21.6767
2023-05-21T03:49:49.917Z,21.6769
2023-05-21T03:50:51.788Z,21.6752
2023-05-21T03:51:53.576Z,21.6752
2023-05-21T03:52:55.407Z,21.6776
2023-05-21T03:53:57.256Z,21.6743
2023-05-21T03:54:59.096Z,21.6695
2023-05-21T03:56:00.931Z,21.6654
2023-05-21T03:57:02.800Z,21.6632
2023-05-21T03:58:04.611Z,21.6671
2023-05-21T03:59:06.437Z,21.6663
2023-05-21T04:00:08.295Z,21.6629
2023-05-21T04:01:10.119Z,21.6668
2023-05-21T04:02:11.977Z,21.6691
2023-05-21T04:03:13.846Z,21.6719
2023-05-21T04:04:15.730Z,21.6769
2023-05-21T04:05:17.461Z,21.6800
2023-05-21T04:06:19.314Z,21.6692
2023-05-21T04:07:21.128Z,21.6655
2023-05-21T04:08:23.002Z,21.6631
2023-05-21T04:09:24.825Z,21.6601
2023-05-21T04:10:26.640Z,21.6618
2023-05-21T04:11:28.487Z,21.6609
2023-05-21T04:12:30.306Z,21.6676
2023-05-21T04:13:32.146Z,21.6720
2023-05-21T04:14:34.015Z,21.6743
2023-05-21T04:15:36.132Z,21.6713
2023-05-21T04:16:37.917Z,21.6706
2023-05-21T04:17:39.556Z,21.6716
2023-05-21T04:18:42.450Z,21.6645
2023-05-21T04:19:43.163Z,21.6625
2023-05-21T04:20:44.999Z,21.6635
2023-05-21T04:21:46.829Z,21.6653
2023-05-21T04:22:48.669Z,21.6696
2023-05-21T04:23:50.489Z,21.6732
2023-05-21T04:24:52.337Z,21.6764
2023-05-21T04:25:54.174Z,21.6755
2023-05-21T04:26:56.009Z,21.6767
2023-05-21T04:27:57.858Z,21.6728
2023-05-21T04:28:59.682Z,21.6663
2023-05-21T04:30:01.511Z,21.6677
2023-05-21T04:31:03.388Z,21.6745
2023-05-21T04:32:05.186Z,21.6778
2023-05-21T04:33:07.043Z,21.6731
2023-05-21T04:34:08.842Z,21.6707
2023-05-21T04:35:10.664Z,21.6714
2023-05-21T04:36:12.512Z,21.6800
2023-05-21T04:37:14.316Z,21.6830
2023-05-21T04:38:16.150Z,21.6793
2023-05-21T04:39:17.986Z,21.6769
2023-05-21T04:40:19.821Z,21.6765
2023-05-21T04:41:21.649Z,21.6799
2023-05-21T04:42:23.471Z,21.6782
2023-05-21T04:43:25.330Z,21.6770
2023-05-21T04:44:27.179Z,21.6744
2023-05-21T04:45:28.985Z,21.6731
2023-05-21T04:46:40.295Z,21.6763
2023-05-21T04:47:31.340Z,21.6693
2023-05-21T04:48:32.897Z,21.6694
2023-05-21T04:49:34.488Z,21.6681
2023-05-21T04:50:36.018Z,21.6693
2023-05-21T04:51:37.562Z,21.6705
2023-05-21T04:52:39.160Z,21.6770
2023-05-21T04:53:40.685Z,21.6804
2023-05-21T04:54:42.238Z,21.6810
2023-05-21T04:55:43.793Z,21.6818
2023-05-21T04:56:45.365Z,21.6789
2023-05-21T04:57:46.924Z,21.6729
2023-05-21T04:58:48.487Z,21.6732
2023-05-21T04:59:50.055Z,21.6728
2023-05-21T05:00:51.859Z,21.6770
2023-05-21T05:01:53.568Z,21.6734
2023-05-21T05:02:55.489Z,21.6778
2023-05-21T05:03:57.412Z,21.6792
2023-05-21T05:04:59.105Z,21.6829
2023-05-21T05:06:00.929Z,21.6866
2023-05-21T05:07:02.765Z,21.6866
2023-05-21T05:08:04.576Z,21.6850
2023-05-21T05:09:06.419Z,21.6863
2023-05-21T05:10:08.260Z,21.6866
2023-05-21T05:11:10.075Z,21.6855
2023-05-21T05:12:11.907Z,21.6859
2023-05-21T05:13:13.776Z,21.6849
2023-05-21T05:14:15.568Z,21.6873
2023-05-21T05:15:17.445Z,21.6887
2023-05-21T05:16:19.292Z,21.6882
2023-05-21T05:17:21.084Z,21.6871
2023-05-21T05:18:22.952Z,21.6793
2023-05-21T05:19:24.819Z,21.6731
2023-05-21T05:20:26.605Z,21.6751
2023-05-21T05:21:28.432Z,21.6730
2023-05-21T05:22:30.254Z,21.6726
2023-05-21T05:23:32.102Z,21.6775
2023-05-21T05:24:33.948Z,21.6824
2023-05-21T05:25:35.983Z,21.6808
2023-05-21T05:26:37.625Z,21.6804
2023-05-21T05:27:39.442Z,21.6820
2023-05-21T05:28:41.259Z,21.6882
2023-05-21T05:29:43.091Z,21.6885
2023-05-21T05:30:44.989Z,21.6892
2023-05-21T05:31:46.769Z,21.6887
2023-05-21T05:32:48.632Z,21.6947
2023-05-21T05:33:50.421Z,21.6947
2023-05-21T05:34:52.277Z,21.6928
2023-05-21T05:35:54.099Z,21.6937
2023-05-21T05:36:55.933Z,21.6937
2023-05-21T05:37:57.749Z,21.6903
2023-05-21T05:38:59.585Z,21.6900
2023-05-21T05:40:01.416Z,21.6899
2023-05-21T05:41:11.347Z,21.6952
2023-05-21T05:42:05.101Z,21.6898
2023-05-21T05:43:06.941Z,21.6941
2023-05-21T05:44:10.820Z,21.6931
2023-05-21T05:45:10.580Z,21.6893
2023-05-21T05:46:12.484Z,21.6842
2023-05-21T05:47:14.277Z,21.6830
2023-05-21T05:48:16.094Z,21.6891
2023-05-21T05:49:25.441Z,21.6877
2023-05-21T05:50:19.743Z,21.6821
2023-05-21T05:51:21.647Z,21.6844
2023-05-21T05:52:23.430Z,21.6858
2023-05-21T05:53:25.265Z,21.6824
2023-05-21T05:54:27.096Z,21.6836
2023-05-21T05:55:28.921Z,21.6901
2023-05-21T05:56:30.774Z,21.6907
2023-05-21T05:57:32.579Z,21.6887
2023-05-21T05:58:34.432Z,21.6901
2023-05-21T05:59:36.254Z,21.6898
2023-05-21T06:00:38.114Z,21.6871
2023-05-21T06:01:39.961Z,21.6827
2023-05-21T06:02:41.792Z,21.6796
2023-05-21T06:03:43.731Z,21.6799
2023-05-21T06:04:45.450Z,21.6799
2023-05-21T06:05:47.319Z,21.6845
2023-05-21T06:06:49.122Z,21.6855
2023-05-21T06:07:50.964Z,21.6883
2023-05-21T06:08:52.785Z,21.6873
2023-05-21T06:09:54.599Z,21.6877
2023-05-21T06:10:56.449Z,21.6887
2023-05-21T06:11:58.269Z,21.6922
2023-05-21T06:13:00.135Z,21.6886
2023-05-21T06:14:01.929Z,21.6831
2023-05-21T06:15:03.762Z,21.6828
2023-05-21T06:16:05.629Z,21.6845
2023-05-21T06:17:07.452Z,21.6868
2023-05-21T06:18:09.324Z,21.6880
2023-05-21T06:19:11.185Z,21.6874
2023-05-21T06:20:12.933Z,21.6873
2023-05-21T06:21:14.779Z,21.6930
2023-05-21T06:22:16.591Z,21.7004
2023-05-21T06:23:18.438Z,21.7047
2023-05-21T06:24:20.272Z,21.7038
2023-05-21T06:25:22.139Z,21.7047
2023-05-21T06:26:23.953Z,21.7068
2023-05-21T06:27:25.858Z,21.7092
2023-05-21T06:28:27.586Z,21.7154
2023-05-21T06:29:29.447Z,21.7130
2023-05-21T06:30:31.273Z,21.7108
2023-05-21T06:31:33.175Z,21.7188
2023-05-21T06:32:34.975Z,21.7231
2023-05-21T06:33:36.880Z,21.7243
2023-05-21T06:34:38.615Z,21.7228
2023-05-21T06:35:40.456Z,21.7203
2023-05-21T06:36:42.265Z,21.7213
2023-05-21T06:37:44.100Z,21.7246
2023-05-21T06:38:45.936Z,21.7282
2023-05-21T06:39:47.780Z,21.7336
2023-05-21T06:40:49.605Z,21.7360
2023-05-21T06:41:51.451Z,21.7389
2023-05-21T06:42:53.278Z,21.7382
2023-05-21T06:43:55.094Z,21.7363
2023-05-21T06:44:56.946Z,21.7341
2023-05-21T06:45:58.811Z,21.7353
2023-05-21T06:47:00.607Z,21.7357
2023-05-21T06:48:02.503Z,21.7411
2023-05-21T06:49:04.274Z,21.7424
2023-05-21T06:50:06.094Z,21.7415
2023-05-21T06:51:07.946Z,21.7430
2023-05-21T06:52:17.298Z,21.7487
2023-05-21T06:53:11.624Z,21.7487
2023-05-21T06:54:13.440Z,21.7502
2023-05-21T06:55:15.276Z,21.7487
2023-05-21T06:56:17.135Z,21.7472
2023-05-21T06:57:18.950Z,21.7404
2023-05-21T06:58:20.798Z,21.7387
2023-05-21T06:59:22.654Z,21.7378
2023-05-21T07:00:24.448Z,21.7395
2023-05-21T07:01:26.334Z,21.7369
2023-05-21T07:02:28.186Z,21.7361
2023-05-21T07:03:30.072Z,21.7372
2023-05-21T07:04:31.794Z,21.7396
2023-05-21T07:05:33.631Z,21.7385
2023-05-21T07:06:35.460Z,21.7372
2023-05-21T07:07:37.275Z,21.7358
2023-05-21T07:08:39.138Z,21.7408
2023-05-21T07:09:40.943Z,21.7432
2023-05-21T07:10:42.804Z,21.7444
2023-05-21T07:11:44.627Z,21.7443
2023-05-21T07:12:46.480Z,21.7457
2023-05-21T07:13:48.286Z,21.7485
2023-05-21T07:14:50.114Z,21.7485
2023-05-21T07:15:51.964Z,21.7479
2023-05-21T07:16:53.849Z,21.7457
2023-05-21T07:17:55.628Z,21.7439
2023-05-21T07:18:57.514Z,21.7456
2023-05-21T07:19:59.269Z,21.7449
2023-05-21T07:21:01.107Z,21.7491
2023-05-21T07:22:02.966Z,21.7531
2023-05-21T07:23:04.785Z,21.7579
2023-05-21T07:24:06.629Z,21.7605
2023-05-21T07:25:08.441Z,21.7616
2023-05-21T07:26:10.287Z,21.7583
2023-05-21T07:27:24.855Z,21.7525
2023-05-21T07:28:14.943Z,21.7446
2023-05-21T07:29:15.789Z,21.7476
2023-05-21T07:30:17.618Z,21.7544
2023-05-21T07:31:19.477Z,21.7585
2023-05-21T07:32:21.389Z,21.7611
2023-05-21T07:33:23.167Z,21.7642
2023-05-21T07:34:25.038Z,21.7632
2023-05-21T07:35:26.812Z,21.7618
2023-05-21T07:36:28.641Z,21.7647
2023-05-21T07:37:30.547Z,21.7675
2023-05-21T07:38:32.300Z,21.7652
2023-05-21T07:39:34.160Z,21.7632
2023-05-21T07:40:35.995Z,21.7648
2023-05-21T07:41:37.827Z,21.7684
2023-05-21T07:42:39.654Z,21.7673
2023-05-21T07:43:41.489Z,21.7671
2023-05-21T07:44:43.514Z,21.7687
2023-05-21T07:45:45.172Z,21.7666
2023-05-21T07:46:47.058Z,21.7661
2023-05-21T07:47:48.874Z,21.7626
2023-05-21T07:48:50.675Z,21.7640
2023-05-21T07:49:52.489Z,21.7643
2023-05-21T07:50:54.312Z,21.7638
2023-05-21T07:51:56.171Z,21.7624
2023-05-21T07:52:58.040Z,21.7626
2023-05-21T07:54:07.327Z,21.7655
2023-05-21T07:55:01.688Z,21.7589
2023-05-21T07:56:03.492Z,21.7595
2023-05-21T07:57:05.366Z,21.7590
2023-05-21T07:58:07.175Z,21.7590
2023-05-21T07:59:08.988Z,21.7608
2023-05-21T08:00:10.850Z,21.7580
2023-05-21T08:01:12.648Z,21.7584
2023-05-21T08:02:14.487Z,21.7608
2023-05-21T08:03:16.570Z,21.7610
2023-05-21T08:04:18.226Z,21.7532
2023-05-21T08:05:19.984Z,21.7448
2023-05-21T08:06:21.805Z,21.7452
2023-05-21T08:07:23.651Z,21.7457
2023-05-21T08:08:25.474Z,21.7463
2023-05-21T08:09:27.321Z,21.7379
2023-05-21T08:10:29.157Z,21.7409
2023-05-21T08:11:30.969Z,21.7416
2023-05-21T08:12:32.815Z,21.7435
2023-05-21T08:13:34.622Z,21.7467
2023-05-21T08:14:36.471Z,21.7458
2023-05-21T08:15:38.514Z,21.7465
2023-05-21T08:16:40.284Z,21.7482
2023-05-21T08:17:42.043Z,21.7502
2023-05-21T08:18:43.842Z,21.7544
2023-05-21T08:19:45.665Z,21.7580
2023-05-21T08:20:47.504Z,21.7568
2023-05-21T08:21:51.343Z,21.7527
2023-05-21T08:22:51.162Z,21.7410
2023-05-21T08:23:53.006Z,21.7412
2023-05-21T08:24:54.811Z,21.7436
2023-05-21T08:25:56.670Z,21.7481
2023-05-21T08:26:58.513Z,21.7493
2023-05-21T08:28:00.311Z,21.7495
2023-05-21T08:29:02.163Z,21.7468
2023-05-21T08:30:03.984Z,21.7462
2023-05-21T08:31:05.822Z,21.7456
2023-05-21T08:32:07.788Z,21.7460
2023-05-21T08:33:09.527Z,21.7444
2023-05-21T08:34:11.321Z,21.7471
2023-05-21T08:35:13.182Z,21.7476
2023-05-21T08:36:15.141Z,21.7472
2023-05-21T08:37:16.805Z,21.7458
2023-05-21T08:38:18.653Z,21.7465
2023-05-21T08:39:20.490Z,21.7454
2023-05-21T08:40:22.325Z,21.7438
2023-05-21T08:41:24.160Z,21.7445
2023-05-21T08:42:36.385Z,21.7404
2023-05-21T08:43:30.953Z,21.7301
2023-05-21T08:44:31.480Z,21.7301
2023-05-21T08:45:33.048Z,21.7323
2023-05-21T08:46:34.649Z,21.7299
2023-05-21T08:47:36.251Z,21.7312
2023-05-21T08:48:37.695Z,21.7369
2023-05-21T08:49:46.754Z,21.7356
2023-05-21T08:50:40.824Z,21.7254
2023-05-21T08:51:42.488Z,21.7250
2023-05-21T08:52:44.326Z,21.7275
2023-05-21T08:53:46.130Z,21.7251
2023-05-21T08:54:47.949Z,21.7233
2023-05-21T08:55:51.697Z,21.7167
2023-05-21T08:56:59.427Z,21.7151
2023-05-21T08:57:53.454Z,21.7108
2023-05-21T08:58:55.367Z,21.7154
2023-05-21T08:59:57.126Z,21.7218
2023-05-21T09:00:59.008Z,21.7245
2023-05-21T09:02:00.858Z,21.7251
2023-05-21T09:03:02.672Z,21.7260
2023-05-21T09:04:18.957Z,21.7275
2023-05-21T09:05:08.338Z,21.7205
2023-05-21T09:06:08.892Z,21.7172
2023-05-21T09:07:10.502Z,21.7151
2023-05-21T09:08:12.019Z,21.7143
2023-05-21T09:09:13.645Z,21.7151
2023-05-21T09:10:15.480Z,21.7177
2023-05-21T09:11:17.309Z,21.7144
2023-05-21T09:12:19.166Z,21.7106
2023-05-21T09:13:20.995Z,21.7074
2023-05-21T09:14:22.848Z,21.7047
2023-05-21T09:15:24.659Z,21.7043
2023-05-21T09:16:26.498Z,21.7057
2023-05-21T09:17:28.333Z,21.7081
2023-05-21T09:18:30.134Z,21.7094
2023-05-21T09:19:32.044Z,21.7116
2023-05-21T09:20:33.842Z,21.7134
2023-05-21T09:21:35.646Z,21.7162
2023-05-21T09:22:37.489Z,21.7192
2023-05-21T09:23:39.313Z,21.7160
2023-05-21T09:24:41.158Z,21.7127
2023-05-21T09:25:42.973Z,21.7118
2023-05-21T09:26:44.815Z,21.7091
2023-05-21T09:27:46.660Z,21.7127
2023-05-21T09:28:48.497Z,21.7156
2023-05-21T09:29:50.335Z,21.7137
2023-05-21T09:30:52.158Z,21.7099
2023-05-21T09:31:54.105Z,21.7056
2023-05-21T09:32:55.914Z,21.7041
2023-05-21T09:33:57.668Z,21.7050
2023-05-21T09:34:59.496Z,21.7085
2023-05-21T09:36:01.323Z,21.7111
2023-05-21T09:37:04.990Z,21.7112
2023-05-21T09:38:05.015Z,21.7087
2023-05-21T09:39:06.832Z,21.7078
2023-05-21T09:40:08.660Z,21.7079
2023-05-21T09:41:10.500Z,21.7097
2023-05-21T09:42:12.338Z,21.7123
2023-05-21T09:43:14.184Z,21.7127
2023-05-21T09:44:16.023Z,21.7154
2023-05-21T09:45:17.876Z,21.7149
2023-05-21T09:46:19.718Z,21.7142
2023-05-21T09:47:21.578Z,21.7186
2023-05-21T09:48:23.359Z,21.7200
2023-05-21T09:49:25.246Z,21.7171
2023-05-21T09:50:27.016Z,21.7187
2023-05-21T09:51:28.872Z,21.7217
2023-05-21T09:52:30.718Z,21.7249
2023-05-21T09:53:32.546Z,21.7278
2023-05-21T09:54:34.379Z,21.7261
2023-05-21T09:55:36.213Z,21.7263
2023-05-21T09:56:38.056Z,21.7294
2023-05-21T09:57:39.870Z,21.7310
2023-05-21T09:58:41.732Z,21.7336
2023-05-21T09:59:51.084Z,21.7336
2023-05-21T10:00:45.637Z,21.7262
2023-05-21T10:01:47.294Z,21.7308
2023-05-21T10:02:49.125Z,21.7370
2023-05-21T10:03:50.934Z,21.7409
2023-05-21T10:04:52.764Z,21.7435
2023-05-21T10:05:54.588Z,21.7453
2023-05-21T10:06:56.403Z,21.7465
2023-05-21T10:07:58.246Z,21.7488
2023-05-21T10:09:00.842Z,21.7514
2023-05-21T10:10:01.935Z,21.7579
2023-05-21T10:11:03.758Z,21.7613
2023-05-21T10:12:05.596Z,21.7655
2023-05-21T10:13:07.441Z,21.7700
2023-05-21T10:14:09.299Z,21.7713
2023-05-21T10:15:11.106Z,21.7746
2023-05-21T10:16:12.978Z,21.7759
2023-05-21T10:17:14.761Z,21.7801
2023-05-21T10:18:16.619Z,21.7874
2023-05-21T10:19:18.495Z,21.7917
2023-05-21T10:20:20.270Z,21.7948
2023-05-21T10:21:22.090Z,21.7966
2023-05-21T10:22:23.934Z,21.7991
2023-05-21T10:23:25.772Z,21.7993
2023-05-21T10:24:27.619Z,21.8033
2023-05-21T10:25:29.421Z,21.8102
2023-05-21T10:26:31.259Z,21.8153
2023-05-21T10:27:33.148Z,21.8171
2023-05-21T10:28:34.946Z,21.8202
2023-05-21T10:29:36.797Z,21.8231
2023-05-21T10:30:38.862Z,21.8256
2023-05-21T10:31:40.451Z,21.8285
2023-05-21T10:32:42.358Z,21.8310
2023-05-21T10:33:44.129Z,21.8345
2023-05-21T10:34:45.976Z,21.8379
2023-05-21T10:35:47.799Z,21.8382
2023-05-21T10:36:49.607Z,21.8363
2023-05-21T10:37:51.443Z,21.8393
2023-05-21T10:38:53.334Z,21.8425
2023-05-21T10:39:55.141Z,21.8504
2023-05-21T10:40:56.955Z,21.8540
2023-05-21T10:41:59.309Z,21.8577
2023-05-21T10:43:00.622Z,21.8552
2023-05-21T10:44:02.448Z,21.8587
2023-05-21T10:45:04.355Z,21.8581
2023-05-21T10:46:06.200Z,21.8619
2023-05-21T10:47:07.972Z,21.8703
2023-05-21T10:48:09.832Z,21.8761
2023-05-21T10:49:11.637Z,21.8824
2023-05-21T10:50:13.473Z,21.8865
2023-05-21T10:51:15.288Z,21.8887
2023-05-21T10:52:17.122Z,21.8888
2023-05-21T10:53:18.975Z,21.8853
2023-05-21T10:54:20.805Z,21.8868
2023-05-21T10:55:22.693Z,21.8876
2023-05-21T10:56:24.461Z,21.8859
2023-05-21T10:57:26.319Z,21.8879
2023-05-21T10:58:30.048Z,21.8877
2023-05-21T10:59:29.982Z,21.8837
2023-05-21T11:00:31.833Z,21.8822
2023-05-21T11:01:33.686Z,21.8847
2023-05-21T11:02:43.124Z,21.8889
2023-05-21T11:03:38.092Z,21.8872
2023-05-21T11:04:39.143Z,21.8886
2023-05-21T11:05:40.988Z,21.8913
2023-05-21T11:06:42.810Z,21.8890
2023-05-21T11:07:44.661Z,21.8939
2023-05-21T11:08:46.480Z,21.9007
2023-05-21T11:09:48.326Z,21.9023
2023-05-21T11:10:50.159Z,21.9013
2023-05-21T11:11:51.988Z,21.9040
2023-05-21T11:12:53.804Z,21.9043
2023-05-21T11:13:55.656Z,21.9052
2023-05-21T11:14:57.487Z,21.9097
2023-05-21T11:15:59.409Z,21.9165
2023-05-21T11:17:01.219Z,21.9246
2023-05-21T11:18:03.029Z,21.9325
2023-05-21T11:19:04.854Z,21.9344
2023-05-21T11:20:06.628Z,21.9334
2023-05-21T11:21:08.473Z,21.9314
2023-05-21T11:22:10.322Z,21.9287
2023-05-21T11:23:12.130Z,21.9285
2023-05-21T11:24:13.974Z,21.9273
2023-05-21T11:25:15.797Z,21.9289
2023-05-21T11:26:17.635Z,21.9280
2023-05-21T11:27:19.491Z,21.9300
2023-05-21T11:28:21.291Z,21.9324
2023-05-21T11:29:23.128Z,21.9358
2023-05-21T11:30:24.959Z,21.9369
2023-05-21T11:31:26.939Z,21.9371
2023-05-21T11:32:28.746Z,21.9358
2023-05-21T11:33:30.465Z,21.9353
2023-05-21T11:34:32.291Z,21.9371
2023-05-21T11:35:34.138Z,21.9388
2023-05-21T11:36:36.230Z,21.9387
2023-05-21T11:37:37.887Z,21.9374
2023-05-21T11:38:39.760Z,21.9367
2023-05-21T11:39:41.550Z,21.9379
2023-05-21T11:40:43.372Z,21.9386
2023-05-21T11:41:45.259Z,21.9414
2023-05-21T11:42:47.069Z,21.9401
2023-05-21T11:43:48.916Z,21.9423
2023-05-21T11:44:50.736Z,21.9463
2023-05-21T11:45:52.564Z,21.9494
2023-05-21T11:46:54.427Z,21.9522
2023-05-21T11:47:56.336Z,21.9501
2023-05-21T11:48:58.101Z,21.9534
2023-05-21T11:49:59.926Z,21.9548
2023-05-21T11:51:01.735Z,21.9542
2023-05-21T11:52:03.632Z,21.9558
2023-05-21T11:53:05.409Z,21.9561
2023-05-21T11:54:07.240Z,21.9516
2023-05-21T11:55:16.600Z,21.9529
2023-05-21T11:56:10.918Z,21.9486
2023-05-21T11:57:12.759Z,21.9519
2023-05-21T11:58:14.581Z,21.9546
2023-05-21T11:59:18.705Z,21.9567
2023-05-21T12:00:18.275Z,21.9520
2023-05-21T12:01:20.098Z,21.9508
2023-05-21T12:02:21.976Z,21.9490
2023-05-21T12:03:23.859Z,21.9534
2023-05-21T12:04:25.595Z,21.9593
2023-05-21T12:05:27.453Z,21.9644
2023-05-21T12:06:29.374Z,21.9684
2023-05-21T12:07:31.253Z,21.9706
2023-05-21T12:08:32.919Z,21.9729
2023-05-21T12:09:34.796Z,21.9762
2023-05-21T12:10:36.747Z,21.9773
2023-05-21T12:11:38.416Z,21.9802
2023-05-21T12:12:53.229Z,21.9811
2023-05-21T12:13:45.305Z,21.9716
2023-05-21T12:14:45.813Z,21.9683
2023-05-21T12:15:47.366Z,21.9698
2023-05-21T12:16:48.947Z,21.9730
2023-05-21T12:17:50.534Z,21.9773
2023-05-21T12:18:52.075Z,21.9784
2023-05-21T12:19:53.626Z,21.9821
2023-05-21T12:20:55.147Z,21.9836
2023-05-21T12:21:56.756Z,21.9855
2023-05-21T12:22:58.636Z,21.9833
2023-05-21T12:24:00.441Z,21.9781
2023-05-21T12:25:02.276Z,21.9752
2023-05-21T12:26:04.118Z,21.9751
2023-05-21T12:27:05.929Z,21.9760